PWSweather.com
Personal Weather Stations
Station Observations
KPAMECHA5
Mechanicsburg, PA 17050

Mechanicsburg, PA 17050

Lat: 40.21531, Lon: -77.0395

Elevation: 430

Station Type: Davis 6322

http://MechanicsburgWeather.com

Latest ConditionsUpdated 4:00:07 AM EST Monday, Dec 22, 2014
Currently Today's Max Today's Min Today's Average
Temperature 17.9°F-7.8°C 20.7°F-6.3°C 17.9°F-7.8°C 19.2°F-7.1°C
Dew Point 16.0°F-8.9°C 18.5°F-7.5°C 16.0°F-8.9°C 17.3°F-8.2°C
Winds Calm Calm Calm NCalm N - Calm Calm
Wind Gusts -- -- - -
Humidity 92% 93% 91% 92%
Pressure 30.27 in1025.1 mb 30.30 in1026.1 mb 30.27 in1025.1 mb -
Hour Temp Dew Point Humidity Winds Wind Gusts Pressure Precip Precip Rate Daily Precip Total
04:00 AM 17.9°F-7.8°C 16.0°F-8.9°C 92% Calm Calm -- 30.27 in1025.1 mb 0.00 in0.0 mm 0.00 in/hr0.0 mm/hr 0.00 in0.0 mm
03:50 AM 18.0°F-7.8°C 16.1°F-8.8°C 92% Calm Calm -- 30.28 in1025.4 mb 0.00 in0.0 mm 0.00 in/hr0.0 mm/hr 0.00 in0.0 mm
03:40 AM 18.2°F-7.7°C 16.3°F-8.7°C 92% Calm Calm -- 30.29 in1025.7 mb 0.00 in0.0 mm 0.00 in/hr0.0 mm/hr 0.00 in0.0 mm
03:30 AM 18.4°F-7.6°C 16.4°F-8.7°C 92% Calm Calm -- 30.29 in1025.7 mb 0.00 in0.0 mm 0.00 in/hr0.0 mm/hr 0.00 in0.0 mm
03:20 AM 18.5°F-7.5°C 16.6°F-8.6°C 92% Calm Calm -- 30.29 in1025.7 mb 0.00 in0.0 mm 0.00 in/hr0.0 mm/hr 0.00 in0.0 mm
03:10 AM 18.7°F-7.4°C 17.0°F-8.3°C 93% Calm Calm -- 30.29 in1025.7 mb 0.00 in0.0 mm 0.00 in/hr0.0 mm/hr 0.00 in0.0 mm
03:00 AM 18.7°F-7.4°C 17.0°F-8.3°C 93% Calm Calm -- 30.30 in1026.1 mb 0.00 in0.0 mm 0.00 in/hr0.0 mm/hr 0.00 in0.0 mm
02:50 AM 18.7°F-7.4°C 17.0°F-8.3°C 93% Calm Calm -- 30.30 in1026.1 mb 0.00 in0.0 mm 0.00 in/hr0.0 mm/hr 0.00 in0.0 mm
02:40 AM 18.5°F-7.5°C 16.6°F-8.6°C 92% Calm Calm -- 30.30 in1026.1 mb 0.00 in0.0 mm 0.00 in/hr0.0 mm/hr 0.00 in0.0 mm
02:30 AM 18.6°F-7.4°C 16.6°F-8.6°C 92% Calm Calm -- 30.30 in1026.1 mb 0.00 in0.0 mm 0.00 in/hr0.0 mm/hr 0.00 in0.0 mm
02:20 AM 18.6°F-7.4°C 16.7°F-8.5°C 92% Calm Calm -- 30.30 in1026.1 mb 0.00 in0.0 mm 0.00 in/hr0.0 mm/hr 0.00 in0.0 mm
02:10 AM 18.8°F-7.3°C 16.9°F-8.4°C 92% Calm Calm -- 30.29 in1025.7 mb 0.00 in0.0 mm 0.00 in/hr0.0 mm/hr 0.00 in0.0 mm
02:00 AM 19.1°F-7.2°C 17.1°F-8.3°C 92% Calm Calm -- 30.30 in1026.1 mb 0.00 in0.0 mm 0.00 in/hr0.0 mm/hr 0.00 in0.0 mm
01:50 AM 19.2°F-7.1°C 17.3°F-8.2°C 92% Calm Calm -- 30.29 in1025.7 mb 0.00 in0.0 mm 0.00 in/hr0.0 mm/hr 0.00 in0.0 mm
01:40 AM 19.3°F-7.1°C 17.4°F-8.1°C 92% Calm Calm -- 30.29 in1025.7 mb 0.00 in0.0 mm 0.00 in/hr0.0 mm/hr 0.00 in0.0 mm
01:30 AM 19.5°F-6.9°C 17.6°F-8.0°C 92% Calm Calm -- 30.29 in1025.7 mb 0.00 in0.0 mm 0.00 in/hr0.0 mm/hr 0.00 in0.0 mm
01:20 AM 19.7°F-6.8°C 17.8°F-7.9°C 92% Calm Calm -- 30.28 in1025.4 mb 0.00 in0.0 mm 0.00 in/hr0.0 mm/hr 0.00 in0.0 mm
01:10 AM 19.8°F-6.8°C 17.9°F-7.8°C 92% Calm Calm -- 30.28 in1025.4 mb 0.00 in0.0 mm 0.00 in/hr0.0 mm/hr 0.00 in0.0 mm
01:00 AM 20.0°F-6.7°C 18.1°F-7.7°C 92% Calm Calm -- 30.28 in1025.4 mb 0.00 in0.0 mm 0.00 in/hr0.0 mm/hr 0.00 in0.0 mm
12:50 AM 20.1°F-6.6°C 18.2°F-7.7°C 92% Calm Calm -- 30.28 in1025.4 mb 0.00 in0.0 mm 0.00 in/hr0.0 mm/hr 0.00 in0.0 mm
12:40 AM 20.2°F-6.6°C 18.2°F-7.7°C 92% Calm Calm -- 30.28 in1025.4 mb 0.00 in0.0 mm 0.00 in/hr0.0 mm/hr 0.00 in0.0 mm
12:30 AM 20.2°F-6.6°C 18.0°F-7.8°C 91% Calm Calm -- 30.29 in1025.7 mb 0.00 in0.0 mm 0.00 in/hr0.0 mm/hr 0.00 in0.0 mm
12:20 AM 20.5°F-6.4°C 18.5°F-7.5°C 92% Calm Calm -- 30.29 in1025.7 mb 0.00 in0.0 mm 0.00 in/hr0.0 mm/hr 0.00 in0.0 mm
12:10 AM 20.5°F-6.4°C 18.3°F-7.6°C 91% Calm Calm -- 30.29 in1025.7 mb 0.00 in0.0 mm 0.00 in/hr0.0 mm/hr 0.00 in0.0 mm
12:00 AM 20.7°F-6.3°C 18.5°F-7.5°C 91% Calm Calm -- 30.29 in1025.7 mb 0.00 in0.0 mm 0.00 in/hr0.0 mm/hr 0.00 in0.0 mm